createdAt,value
2022-09-17T00:02:13.747Z,5.20
2022-09-17T00:07:15.653Z,7.60
2022-09-17T00:12:15.988Z,4.90
2022-09-17T00:14:46.591Z,5.90
2022-09-17T00:17:16.968Z,8.60
2022-09-17T00:19:47.342Z,4.40
2022-09-17T00:22:17.719Z,4.30
2022-09-17T00:24:49.771Z,8.60
2022-09-17T00:27:20.129Z,4.40
2022-09-17T00:29:51.597Z,7.80
2022-09-17T00:32:22.006Z,5.30
2022-09-17T00:34:53.088Z,7.00
2022-09-17T00:37:23.598Z,5.80
2022-09-17T00:39:54.057Z,5.00
2022-09-17T00:42:24.698Z,5.40
2022-09-17T00:44:56.284Z,9.90
2022-09-17T00:47:30.923Z,7.70
2022-09-17T00:50:05.503Z,4.50
2022-09-17T00:52:39.066Z,3.20
2022-09-17T00:55:14.361Z,6.60
2022-09-17T00:57:45.898Z,8.60
2022-09-17T01:00:17.922Z,6.30
2022-09-17T01:02:48.604Z,6.60
2022-09-17T01:05:19.213Z,6.70
2022-09-17T01:08:01.152Z,6.90
2022-09-17T01:10:49.268Z,5.50
2022-09-17T01:13:28.897Z,4.90
2022-09-17T01:16:06.625Z,5.90
2022-09-17T01:18:46.996Z,5.80
2022-09-17T01:21:40.113Z,5.90
2022-09-17T01:24:33.633Z,7.60
2022-09-17T01:27:27.464Z,4.20
2022-09-17T01:30:12.332Z,5.40
2022-09-17T01:32:46.046Z,5.20
2022-09-17T01:35:20.853Z,5.90
2022-09-17T01:37:58.700Z,7.50
2022-09-17T01:40:34.654Z,8.50
2022-09-17T01:43:09.655Z,4.40
2022-09-17T01:45:42.693Z,9.80
2022-09-17T01:50:46.698Z,6.00
2022-09-17T01:53:19.465Z,7.50
2022-09-17T01:55:51.033Z,8.60
2022-09-17T01:58:24.180Z,4.00
2022-09-17T02:00:57.141Z,6.00
2022-09-17T02:06:03.231Z,4.40
2022-09-17T02:11:06.512Z,5.60
2022-09-17T02:13:39.729Z,8.40
2022-09-17T02:16:13.558Z,3.30
2022-09-17T02:18:48.005Z,5.90
2022-09-17T02:21:21.860Z,5.20
2022-09-17T02:24:03.859Z,4.60
2022-09-17T02:26:35.285Z,6.30
2022-09-17T02:29:11.026Z,3.60
2022-09-17T02:31:41.956Z,6.10
2022-09-17T02:34:13.222Z,6.60
2022-09-17T02:36:43.613Z,7.10
2022-09-17T02:39:13.965Z,6.70
2022-09-17T02:41:50.234Z,2.90
2022-09-17T02:44:27.379Z,6.00
2022-09-17T02:47:16.774Z,5.90
2022-09-17T02:50:04.100Z,5.10
2022-09-17T02:52:46.417Z,8.00
2022-09-17T02:55:21.323Z,5.60
2022-09-17T02:57:56.808Z,6.90
2022-09-17T03:00:28.377Z,9.90
2022-09-17T03:03:01.849Z,7.60
2022-09-17T03:05:32.495Z,5.50
2022-09-17T03:08:03.264Z,6.60
2022-09-17T03:10:37.616Z,3.20
2022-09-17T03:13:08.548Z,4.40
2022-09-17T03:15:38.890Z,6.80
2022-09-17T03:18:09.265Z,4.70
2022-09-17T03:20:39.623Z,4.10
2022-09-17T03:23:09.910Z,5.30
2022-09-17T03:25:40.184Z,7.30
2022-09-17T03:28:14.487Z,5.40
2022-09-17T03:30:45.183Z,5.10
2022-09-17T03:33:15.590Z,5.40
2022-09-17T03:35:47.026Z,4.60
2022-09-17T03:38:17.509Z,5.00
2022-09-17T03:40:48.067Z,5.20
2022-09-17T03:43:18.348Z,5.70
2022-09-17T03:45:49.217Z,4.20
2022-09-17T03:48:19.653Z,4.20
2022-09-17T03:50:50.028Z,3.60
2022-09-17T03:53:20.815Z,8.10
2022-09-17T03:55:51.129Z,4.10
2022-09-17T03:58:21.446Z,4.00
2022-09-17T04:00:53.328Z,6.00
2022-09-17T04:03:23.833Z,1.70
2022-09-17T04:05:54.525Z,6.00
2022-09-17T04:08:25.340Z,4.00
2022-09-17T04:10:55.713Z,7.00
2022-09-17T04:13:26.113Z,5.40
2022-09-17T04:15:56.455Z,6.80
2022-09-17T04:18:26.839Z,5.00
2022-09-17T04:20:57.330Z,5.60
2022-09-17T04:23:27.615Z,7.00
2022-09-17T04:25:57.989Z,5.50
2022-09-17T04:28:28.353Z,4.00
2022-09-17T04:31:01.640Z,6.80
2022-09-17T04:33:32.136Z,4.80
2022-09-17T04:36:02.691Z,7.00
2022-09-17T04:38:33.556Z,6.80
2022-09-17T04:41:05.121Z,4.70
2022-09-17T04:43:35.581Z,2.40
2022-09-17T04:46:06.207Z,6.40
2022-09-17T04:48:36.715Z,6.10
2022-09-17T04:51:07.428Z,4.30
2022-09-17T04:53:38.475Z,6.50
2022-09-17T04:56:09.032Z,6.60
2022-09-17T04:58:39.609Z,4.30
2022-09-17T05:01:10.172Z,5.30
2022-09-17T05:03:40.776Z,7.10
2022-09-17T05:06:11.260Z,4.30
2022-09-17T05:08:41.732Z,7.20
2022-09-17T05:11:12.108Z,4.90
2022-09-17T05:13:42.617Z,5.60
2022-09-17T05:16:13.071Z,5.00
2022-09-17T05:18:43.571Z,4.40
2022-09-17T05:21:14.241Z,6.10
2022-09-17T05:23:44.656Z,8.60
2022-09-17T05:26:15.518Z,11.10
2022-09-17T05:28:45.854Z,6.90
2022-09-17T05:31:16.230Z,5.40
2022-09-17T05:33:46.820Z,6.30
2022-09-17T05:36:17.616Z,8.50
2022-09-17T05:38:47.915Z,8.10
2022-09-17T05:41:18.361Z,10.90
2022-09-17T05:43:48.637Z,10.70
2022-09-17T05:46:19.090Z,8.00
2022-09-17T05:48:49.429Z,13.10
2022-09-17T05:51:19.852Z,8.90
2022-09-17T05:53:50.187Z,10.40
2022-09-17T05:56:21.860Z,10.50
2022-09-17T05:58:55.995Z,8.40
2022-09-17T06:01:26.543Z,7.70
2022-09-17T06:03:57.123Z,11.70
2022-09-17T06:06:29.496Z,10.60
2022-09-17T06:09:01.502Z,9.40
2022-09-17T06:11:31.896Z,14.60
2022-09-17T06:14:02.265Z,13.00
2022-09-17T06:16:32.640Z,7.40
2022-09-17T06:19:04.089Z,8.50
2022-09-17T06:21:34.591Z,12.90
2022-09-17T06:24:05.346Z,9.40
2022-09-17T06:26:35.643Z,11.30
2022-09-17T06:29:06.074Z,7.80
2022-09-17T06:31:36.634Z,10.50
2022-09-17T06:34:07.419Z,10.40
2022-09-17T06:36:37.810Z,8.90
2022-09-17T06:39:08.241Z,8.60
2022-09-17T06:41:39.056Z,9.80
2022-09-17T06:44:09.484Z,8.90
2022-09-17T06:46:39.974Z,9.60
2022-09-17T06:49:11.660Z,11.00
2022-09-17T06:51:41.972Z,12.10
2022-09-17T06:54:13.539Z,8.00
2022-09-17T06:56:43.868Z,13.40
2022-09-17T06:59:14.411Z,9.40
2022-09-17T07:01:45.632Z,12.20
2022-09-17T07:04:17.423Z,10.50
2022-09-17T07:06:47.837Z,11.10
2022-09-17T07:09:18.255Z,8.40
2022-09-17T07:11:48.637Z,10.30
2022-09-17T07:14:19.905Z,10.50
2022-09-17T07:16:50.693Z,8.40
2022-09-17T07:19:21.004Z,9.30
2022-09-17T07:21:51.941Z,8.90
2022-09-17T07:24:22.415Z,17.60
2022-09-17T07:26:53.412Z,13.30
2022-09-17T07:29:26.290Z,11.00
2022-09-17T07:34:28.085Z,11.00
2022-09-17T07:39:27.579Z,10.30
2022-09-17T07:41:58.287Z,10.10
2022-09-17T07:44:29.491Z,7.90
2022-09-17T07:47:00.593Z,8.30
2022-09-17T07:49:31.293Z,8.30
2022-09-17T07:52:06.241Z,9.40
2022-09-17T07:54:38.038Z,9.10
2022-09-17T07:57:08.605Z,8.80
2022-09-17T07:59:38.958Z,12.00
2022-09-17T08:02:12.610Z,9.50
2022-09-17T08:04:44.593Z,9.00
2022-09-17T08:07:15.355Z,8.30
2022-09-17T08:09:45.741Z,9.50
2022-09-17T08:12:18.238Z,7.70
2022-09-17T08:14:48.871Z,8.30
2022-09-17T08:17:19.220Z,10.30
2022-09-17T08:19:49.583Z,11.80
2022-09-17T08:22:20.805Z,8.50
2022-09-17T08:25:27.018Z,7.90
2022-09-17T08:28:00.017Z,9.20
2022-09-17T08:30:33.036Z,8.10
2022-09-17T08:33:03.360Z,6.30
2022-09-17T08:35:33.739Z,8.80
2022-09-17T08:38:04.446Z,6.90
2022-09-17T08:40:34.892Z,10.40
2022-09-17T08:43:05.991Z,6.60
2022-09-17T08:45:37.099Z,6.40
2022-09-17T08:48:10.848Z,6.40
2022-09-17T08:50:42.809Z,5.60
2022-09-17T08:53:26.066Z,6.20
2022-09-17T08:56:02.706Z,7.30
2022-09-17T08:58:42.239Z,7.00
2022-09-17T09:01:22.048Z,4.60
2022-09-17T09:04:19.301Z,6.60
2022-09-17T09:06:52.381Z,5.90
2022-09-17T09:09:26.317Z,6.30
2022-09-17T09:12:01.757Z,8.00
2022-09-17T09:14:35.898Z,5.70
2022-09-17T09:17:09.241Z,5.30
2022-09-17T09:19:45.047Z,5.60
2022-09-17T09:22:34.684Z,6.40
2022-09-17T09:25:13.058Z,5.90
2022-09-17T09:27:47.329Z,5.20
2022-09-17T09:30:23.485Z,5.30
2022-09-17T09:32:58.925Z,6.30
2022-09-17T09:35:30.236Z,5.30
2022-09-17T09:38:05.671Z,6.30
2022-09-17T09:40:44.172Z,6.20
2022-09-17T09:43:18.451Z,5.10
2022-09-17T09:46:03.182Z,5.70
2022-09-17T09:48:42.556Z,4.60
2022-09-17T09:51:19.694Z,6.00
2022-09-17T09:54:01.689Z,7.30
2022-09-17T09:56:44.570Z,7.60
2022-09-17T09:59:15.485Z,5.10
2022-09-17T10:01:46.833Z,6.20
2022-09-17T10:04:21.026Z,4.20
2022-09-17T10:06:53.688Z,5.70
2022-09-17T10:09:24.368Z,6.70
2022-09-17T10:12:07.544Z,5.10
2022-09-17T10:14:39.053Z,5.60
2022-09-17T10:17:19.292Z,4.90
2022-09-17T10:20:06.926Z,7.30
2022-09-17T10:22:38.518Z,6.90
2022-09-17T10:25:22.037Z,7.90
2022-09-17T10:27:52.696Z,5.60
2022-09-17T10:30:24.372Z,6.80
2022-09-17T10:33:18.359Z,4.30
2022-09-17T10:35:59.612Z,5.80
2022-09-17T10:38:32.053Z,5.30
2022-09-17T10:41:21.645Z,6.00
2022-09-17T10:43:52.485Z,4.20
2022-09-17T10:46:27.982Z,7.80
2022-09-17T10:49:12.248Z,4.90
2022-09-17T10:51:42.679Z,4.60
2022-09-17T10:54:26.381Z,4.90
2022-09-17T10:56:58.344Z,4.60
2022-09-17T10:59:50.236Z,6.20
2022-09-17T11:02:40.982Z,5.50
2022-09-17T11:05:27.464Z,3.80
2022-09-17T11:08:04.059Z,6.70
2022-09-17T11:10:38.108Z,6.10
2022-09-17T11:13:18.732Z,5.00
2022-09-17T11:16:00.657Z,3.80
2022-09-17T11:18:42.360Z,4.90
2022-09-17T11:21:46.630Z,4.60
2022-09-17T11:24:37.181Z,5.20
2022-09-17T11:27:12.488Z,4.20
2022-09-17T11:29:54.868Z,5.10
2022-09-17T11:32:35.665Z,4.60
2022-09-17T11:35:09.641Z,3.50
2022-09-17T11:37:43.489Z,5.20
2022-09-17T11:40:18.769Z,4.20
2022-09-17T11:42:50.749Z,6.70
2022-09-17T11:45:23.719Z,5.00
2022-09-17T11:47:57.580Z,4.50
2022-09-17T11:50:31.130Z,4.40
2022-09-17T11:53:07.564Z,6.90
2022-09-17T11:55:43.344Z,2.70
2022-09-17T11:58:17.585Z,3.40
2022-09-17T12:00:53.445Z,3.20
2022-09-17T12:03:27.621Z,4.30
2022-09-17T12:06:00.161Z,3.10
2022-09-17T12:08:35.447Z,7.20
2022-09-17T12:11:11.162Z,5.20
2022-09-17T12:13:45.526Z,4.50
2022-09-17T12:16:19.759Z,4.20
2022-09-17T12:19:03.662Z,5.60
2022-09-17T12:21:38.577Z,4.50
2022-09-17T12:24:16.148Z,4.60
2022-09-17T12:27:02.794Z,3.20
2022-09-17T12:29:40.996Z,4.40
2022-09-17T12:32:32.897Z,4.20
2022-09-17T12:35:07.251Z,5.00
2022-09-17T12:37:43.601Z,4.10
2022-09-17T12:40:23.389Z,3.80
2022-09-17T12:43:18.761Z,4.70
2022-09-17T12:46:24.855Z,3.40
2022-09-17T12:49:04.962Z,4.00
2022-09-17T12:51:51.012Z,5.10
2022-09-17T12:54:45.018Z,4.40
2022-09-17T12:57:25.937Z,3.40
2022-09-17T13:00:05.249Z,2.70
2022-09-17T13:02:41.202Z,3.00
2022-09-17T13:05:36.103Z,3.80
2022-09-17T13:08:22.610Z,3.80
2022-09-17T13:11:06.271Z,2.90
2022-09-17T13:13:41.627Z,3.90
2022-09-17T13:16:17.000Z,2.30
2022-09-17T13:19:15.030Z,2.80
2022-09-17T13:21:53.361Z,3.90
2022-09-17T13:24:27.043Z,2.90
2022-09-17T13:26:58.905Z,4.90
2022-09-17T13:29:59.631Z,3.20
2022-09-17T13:32:53.139Z,2.30
2022-09-17T13:35:53.753Z,2.60
2022-09-17T13:38:24.845Z,1.90
2022-09-17T13:41:24.240Z,2.60
2022-09-17T13:43:55.979Z,3.20
2022-09-17T13:46:28.667Z,4.10
2022-09-17T13:49:01.367Z,2.70
2022-09-17T13:51:49.575Z,3.50
2022-09-17T13:54:21.698Z,4.20
2022-09-17T13:57:07.081Z,1.60
2022-09-17T13:59:38.678Z,2.90
2022-09-17T14:02:36.312Z,2.60
2022-09-17T14:05:39.011Z,3.40
2022-09-17T14:08:30.472Z,1.40
2022-09-17T14:11:04.320Z,3.20
2022-09-17T14:13:55.102Z,1.30
2022-09-17T14:16:50.142Z,2.70
2022-09-17T14:19:36.908Z,1.80
2022-09-17T14:22:16.492Z,2.80
2022-09-17T14:24:52.425Z,4.20
2022-09-17T14:27:33.769Z,2.90
2022-09-17T14:30:19.076Z,1.00
2022-09-17T14:32:55.532Z,2.70
2022-09-17T14:35:32.797Z,2.00
2022-09-17T14:38:08.985Z,1.70
2022-09-17T14:40:46.351Z,2.20
2022-09-17T14:43:22.643Z,1.30
2022-09-17T14:45:54.971Z,2.60
2022-09-17T14:48:33.279Z,2.10
2022-09-17T14:51:30.273Z,4.50
2022-09-17T14:54:18.975Z,2.00
2022-09-17T14:56:55.207Z,2.30
2022-09-17T14:59:31.162Z,1.30
2022-09-17T15:02:01.798Z,1.90
2022-09-17T15:04:32.701Z,3.70
2022-09-17T15:07:14.802Z,2.10
2022-09-17T15:09:45.182Z,3.80
2022-09-17T15:12:18.712Z,2.40
2022-09-17T15:14:49.920Z,2.10
2022-09-17T15:17:21.155Z,1.30
2022-09-17T15:19:54.422Z,2.50
2022-09-17T15:22:28.410Z,2.60
2022-09-17T15:25:01.020Z,0.90
2022-09-17T15:27:32.837Z,3.50
2022-09-17T15:30:05.724Z,5.10
2022-09-17T15:35:20.339Z,3.30
2022-09-17T15:40:42.901Z,9.00
2022-09-17T15:43:20.083Z,20.50
2022-09-17T15:45:50.640Z,4.80
2022-09-17T15:48:39.608Z,4.00
2022-09-17T15:51:25.633Z,5.70
2022-09-17T15:53:57.763Z,3.10
2022-09-17T15:56:30.935Z,1.00
2022-09-17T15:59:04.858Z,3.00
2022-09-17T16:01:52.845Z,3.80
2022-09-17T16:04:34.290Z,1.30
2022-09-17T16:07:25.519Z,2.50
2022-09-17T16:09:57.599Z,2.40
2022-09-17T16:12:29.705Z,2.50
2022-09-17T16:15:01.409Z,2.70
2022-09-17T16:17:35.573Z,4.50
2022-09-17T16:20:14.903Z,2.60
2022-09-17T16:22:47.989Z,2.70
2022-09-17T16:25:19.595Z,2.50
2022-09-17T16:27:55.163Z,1.70
2022-09-17T16:30:26.318Z,3.20
2022-09-17T16:32:56.895Z,2.20
2022-09-17T16:35:28.228Z,3.30
2022-09-17T16:37:58.919Z,1.40
2022-09-17T16:40:29.546Z,1.50
2022-09-17T16:43:11.422Z,1.20
2022-09-17T16:45:41.902Z,1.40
2022-09-17T16:48:12.737Z,1.10
2022-09-17T16:50:44.573Z,2.80
2022-09-17T16:53:15.412Z,1.70
2022-09-17T16:55:45.894Z,1.20
2022-09-17T16:58:16.482Z,3.50
2022-09-17T17:00:47.387Z,2.30
2022-09-17T17:03:17.806Z,3.40
2022-09-17T17:05:48.293Z,2.00
2022-09-17T17:08:19.142Z,2.50
2022-09-17T17:10:51.594Z,1.40
2022-09-17T17:13:21.921Z,5.80
2022-09-17T17:15:52.462Z,3.10
2022-09-17T17:18:24.527Z,2.50
2022-09-17T17:20:54.988Z,1.40
2022-09-17T17:23:25.408Z,2.40
2022-09-17T17:25:55.837Z,1.00
2022-09-17T17:28:26.451Z,3.40
2022-09-17T17:30:56.969Z,1.70
2022-09-17T17:33:27.676Z,1.40
2022-09-17T17:36:04.011Z,3.90
2022-09-17T17:38:37.837Z,2.60
2022-09-17T17:41:09.986Z,1.80
2022-09-17T17:43:40.703Z,0.90
2022-09-17T17:46:12.381Z,2.60
2022-09-17T17:48:43.747Z,4.90
2022-09-17T17:51:14.592Z,4.40
2022-09-17T17:53:45.354Z,2.80
2022-09-17T17:56:15.975Z,1.00
2022-09-17T18:06:43.869Z,1.80
2022-09-17T18:09:14.517Z,2.80
2022-09-17T18:11:45.046Z,2.40
2022-09-17T18:14:16.349Z,1.20
2022-09-17T18:16:47.313Z,3.80
2022-09-17T18:19:17.977Z,4.10
2022-09-17T18:21:48.391Z,1.90
2022-09-17T18:24:18.772Z,2.50
2022-09-17T18:26:49.622Z,4.70
2022-09-17T18:29:23.091Z,2.40
2022-09-17T18:31:54.118Z,1.90
2022-09-17T18:34:24.626Z,4.90
2022-09-17T18:36:55.111Z,2.00
2022-09-17T18:42:19.429Z,3.90
2022-09-17T18:44:58.227Z,2.40
2022-09-17T18:47:28.574Z,5.00
2022-09-17T18:49:58.996Z,4.70
2022-09-17T18:52:29.479Z,3.70
2022-09-17T18:55:01.459Z,3.50
2022-09-17T18:57:31.887Z,3.00
2022-09-17T19:00:05.703Z,2.90
2022-09-17T19:02:36.382Z,4.40
2022-09-17T19:05:12.867Z,3.00
2022-09-17T19:07:48.589Z,2.20
2022-09-17T19:10:19.348Z,2.20
2022-09-17T19:12:50.046Z,1.90
2022-09-17T19:15:23.984Z,3.30
2022-09-17T19:17:55.571Z,3.60
2022-09-17T19:20:26.077Z,5.70
2022-09-17T19:22:56.466Z,3.20
2022-09-17T19:25:28.203Z,3.90
2022-09-17T19:27:58.662Z,5.60
2022-09-17T19:30:30.757Z,4.60
2022-09-17T19:33:01.293Z,3.70
2022-09-17T19:35:31.748Z,3.50
2022-09-17T19:38:02.187Z,3.10
2022-09-17T19:40:35.869Z,3.70
2022-09-17T19:43:06.248Z,3.60
2022-09-17T19:45:38.418Z,4.50
2022-09-17T19:48:08.743Z,4.10
2022-09-17T19:50:39.072Z,5.80
2022-09-17T19:53:10.191Z,2.20
2022-09-17T19:55:42.679Z,3.00
2022-09-17T19:58:17.335Z,4.30
2022-09-17T20:00:47.823Z,5.50
2022-09-17T20:03:18.399Z,3.00
2022-09-17T20:05:48.778Z,8.70
2022-09-17T20:08:19.301Z,7.90
2022-09-17T20:10:50.122Z,6.30
2022-09-17T20:13:23.560Z,2.50
2022-09-17T20:15:53.983Z,5.60
2022-09-17T20:18:24.834Z,1.80
2022-09-17T20:20:55.638Z,7.10
2022-09-17T20:23:28.877Z,7.40
2022-09-17T20:25:59.459Z,5.20
2022-09-17T20:28:29.895Z,6.50
2022-09-17T20:31:07.497Z,5.90
2022-09-17T20:33:38.073Z,6.50
2022-09-17T20:36:12.197Z,5.80
2022-09-17T20:39:15.440Z,3.60
2022-09-17T20:41:34.305Z,3.40
2022-09-17T20:44:07.208Z,6.00
2022-09-17T20:46:40.157Z,7.20
2022-09-17T20:51:42.606Z,5.20
2022-09-17T20:54:13.608Z,2.50
2022-09-17T20:56:46.652Z,7.70
2022-09-17T20:59:19.428Z,5.30
2022-09-17T21:01:50.561Z,2.80
2022-09-17T21:04:27.075Z,5.50
2022-09-17T21:06:58.016Z,7.40
2022-09-17T21:09:28.473Z,5.50
2022-09-17T21:12:01.133Z,8.30
2022-09-17T21:14:31.466Z,7.70
2022-09-17T21:17:07.997Z,6.40
2022-09-17T21:19:38.290Z,4.90
2022-09-17T21:22:08.688Z,4.40
2022-09-17T21:24:40.148Z,5.50
2022-09-17T21:27:10.496Z,7.20
2022-09-17T21:29:41.006Z,5.30
2022-09-17T21:32:11.387Z,5.20
2022-09-17T21:34:41.711Z,3.90
2022-09-17T21:37:12.023Z,5.50
2022-09-17T21:39:42.377Z,4.70
2022-09-17T21:42:12.809Z,5.90
2022-09-17T21:44:43.255Z,5.50
2022-09-17T21:47:13.639Z,4.10
2022-09-17T21:49:44.419Z,3.00
2022-09-17T21:52:14.747Z,6.00
2022-09-17T21:54:45.108Z,5.30
2022-09-17T21:57:16.236Z,5.40
2022-09-17T21:59:46.665Z,5.70
2022-09-17T22:02:17.268Z,6.00
2022-09-17T22:04:47.667Z,4.60
2022-09-17T22:07:18.194Z,6.30
2022-09-17T22:09:48.911Z,5.60
2022-09-17T22:12:19.377Z,5.50
2022-09-17T22:14:49.770Z,4.60
2022-09-17T22:17:20.107Z,7.10
2022-09-17T22:19:50.790Z,5.20
2022-09-17T22:22:21.243Z,4.00
2022-09-17T22:24:51.673Z,6.40
2022-09-17T22:27:22.052Z,6.30
2022-09-17T22:29:52.427Z,5.10
2022-09-17T22:32:22.810Z,3.70
2022-09-17T22:34:53.125Z,3.40
2022-09-17T22:37:23.606Z,5.30
2022-09-17T22:39:53.993Z,4.30
2022-09-17T22:42:24.355Z,7.00
2022-09-17T22:44:54.777Z,5.20
2022-09-17T22:47:25.101Z,8.20
2022-09-17T22:49:55.430Z,5.00
2022-09-17T22:52:25.756Z,5.70
2022-09-17T22:54:56.040Z,8.60
2022-09-17T22:57:26.530Z,7.40
2022-09-17T22:59:56.886Z,4.90
2022-09-17T23:02:27.314Z,6.70
2022-09-17T23:04:57.813Z,7.90
2022-09-17T23:07:28.650Z,4.30
2022-09-17T23:09:59.285Z,7.30
2022-09-17T23:12:29.635Z,7.80
2022-09-17T23:15:00.011Z,6.60
2022-09-17T23:17:30.307Z,6.20
2022-09-17T23:20:00.642Z,4.40
2022-09-17T23:22:31.321Z,4.30
2022-09-17T23:25:01.661Z,7.30
2022-09-17T23:27:31.907Z,6.90
2022-09-17T23:30:02.392Z,6.80
2022-09-17T23:32:32.705Z,7.20
2022-09-17T23:35:03.034Z,9.10
2022-09-17T23:37:33.311Z,11.40
2022-09-17T23:40:04.785Z,8.40
2022-09-17T23:42:38.205Z,8.70
2022-09-17T23:45:10.148Z,8.50
2022-09-17T23:47:40.472Z,4.80
2022-09-17T23:50:12.193Z,8.20
2022-09-17T23:52:43.323Z,7.20
2022-09-17T23:55:14.095Z,8.00
2022-09-17T23:57:44.449Z,8.60
